Aviation

Port-au-Prince

FTHA31 MTPP 251200
TAF MTPP 251213Z 2512/2612 10008KT 8000 FEW020
TEMPO 2514/2518 09015G25KT
BECMG 2600/2604 VRB02KT
BECMG 2608/2612 09012KT 9000 FEW018=
NNNN


Cap-Haïtien

FTHA31 MTCH 251800
TAF MTCH 251751Z 2518/2618 03010KT 9000 FEW024 SCT030
BECMG 2606/2610 VRB02KT
BECMG 2612/2616 03010KT 9000 FEW020=
NNNN